Terminal Aerodrome Forecast
Issued by NWS Sterling, VA

Current Version | Previous Version | Text Only | Print | Product List | Glossary Off
Versions: 1 2 3 4 5 6 7 8 9 10 11 12 13 14 15 16 17 18 19 20 21

449
FTUS41 KLWX 251436 AAA
TAFIAD
TAF AMD
KIAD 251436Z 2515/2618 31009KT P6SM SCT080 SCT250
     FM251600 29010G22KT P6SM SCT070
     FM260300 30006KT P6SM FEW070=

USA.gov is the U.S. government's official web portal to all federal, state and local government web resources and services.